Time;durP1;ratioP1;P1;durP2;ratioP2;P2;SDS_P1;SDS_P2;PMS_P1;PMS_P2;Temp;Humidity;BMP_temperature;BMP_pressure;BME280_temperature;BME280_humidity;BME280_pressure;Samples;Min_cycle;Max_cycle;Signal;HPM_P1;HPM_P2
2023/01/26 00:01:16;;;;;;;78.45;24.17;;;;;;;3.27;58.18;102519.56;4912741;28;124326;-71
2023/01/26 00:03:44;;;;;;;74.85;24.67;;;;;;;3.26;58.33;102512.59;4927012;28;119629;-71
2023/01/26 00:06:14;;;;;;;77.82;25.27;;;;;;;3.23;58.33;102508.19;4930481;28;119099;-71
2023/01/26 00:08:53;;;;;;;76.22;23.83;;;;;;;3.23;58.55;102502.94;4932864;28;127400;-71
2023/01/26 00:11:29;;;;;;;75.93;24.10;;;;;;;3.23;58.57;102492.47;4946569;28;124754;-71
2023/01/26 00:13:58;;;;;;;82.07;25.88;;;;;;;3.22;58.62;102495.97;4937485;28;118732;-71
2023/01/26 00:16:26;;;;;;;77.78;24.45;;;;;;;3.20;58.55;102492.47;4942804;28;119251;-72
2023/01/26 00:18:54;;;;;;;84.55;24.73;;;;;;;3.19;58.42;102485.44;4925753;28;124812;-71
2023/01/26 00:21:22;;;;;;;82.50;25.48;;;;;;;3.19;58.42;102489.81;4926589;28;124964;-71
2023/01/26 00:23:51;;;;;;;77.60;23.73;;;;;;;3.19;58.63;102480.22;4943143;28;119107;-71
2023/01/26 00:26:21;;;;;;;75.78;24.13;;;;;;;3.18;58.54;102478.44;4934816;28;119073;-71
2023/01/26 00:28:49;;;;;;;76.72;24.75;;;;;;;3.18;58.49;102482.81;4953197;28;124625;-71
2023/01/26 00:31:25;;;;;;;82.15;25.50;;;;;;;3.18;58.64;102478.44;4932706;28;124538;-70
2023/01/26 00:33:54;;;;;;;72.15;22.25;;;;;;;3.18;58.53;102473.19;4945599;28;119585;-71
2023/01/26 00:36:21;;;;;;;66.20;23.35;;;;;;;3.18;58.51;102475.81;4948649;28;119048;-71
2023/01/26 00:38:48;;;;;;;74.32;23.52;;;;;;;3.19;58.84;102464.50;4929202;28;124308;-71
2023/01/26 00:44:01;;;;;;;71.80;23.60;;;;;;;3.21;58.66;102462.78;4933485;28;119401;-71
2023/01/26 00:46:28;;;;;;;73.65;22.17;;;;;;;3.19;58.67;102464.50;4933509;28;120206;-71
2023/01/26 00:48:56;;;;;;;72.47;22.80;;;;;;;3.19;58.83;102464.50;4933985;28;125638;-71
2023/01/26 00:51:23;;;;;;;71.75;23.02;;;;;;;3.21;58.86;102462.78;4951254;28;125399;-71
2023/01/26 00:53:51;;;;;;;69.35;22.58;;;;;;;3.22;58.81;102454.06;4939842;28;118806;-71
2023/01/26 00:56:18;;;;;;;67.03;21.13;;;;;;;3.21;58.83;102447.06;4943689;28;118562;-71
2023/01/26 00:58:45;;;;;;;72.55;22.67;;;;;;;3.20;58.84;102450.56;4942757;28;124891;-71
2023/01/26 01:01:12;;;;;;;68.25;22.10;;;;;;;3.22;58.79;102443.59;4961979;28;124646;-71
2023/01/26 01:03:41;;;;;;;66.70;21.60;;;;;;;3.23;58.77;102440.09;4940026;28;120372;-71
2023/01/26 01:06:08;;;;;;;69.75;21.98;;;;;;;3.22;58.87;102438.38;4934266;28;119800;-71
2023/01/26 01:08:36;;;;;;;70.00;21.92;;;;;;;3.23;59.30;102441.84;4939920;28;125368;-71
2023/01/26 01:11:08;;;;;;;71.45;22.50;;;;;;;3.21;58.94;102430.50;4952337;28;124712;-71
2023/01/26 01:13:36;;;;;;;68.20;22.50;;;;;;;3.19;58.85;102433.09;4948823;28;120032;-71
2023/01/26 01:16:08;;;;;;;70.07;21.77;;;;;;;3.21;58.99;102431.38;4936667;28;119868;-71
2023/01/26 01:18:35;;;;;;;63.95;21.52;;;;;;;3.21;58.80;102431.38;4932614;28;123268;-71
2023/01/26 01:21:11;;;;;;;64.75;21.75;;;;;;;3.19;58.86;102430.47;4937735;28;124095;-71
2023/01/26 01:23:39;;;;;;;67.72;22.58;;;;;;;3.18;58.94;102430.44;4948052;28;122091;-71
2023/01/26 01:26:10;;;;;;;63.30;21.67;;;;;;;3.18;58.92;102431.31;4936010;28;120141;-71
2023/01/26 01:28:37;;;;;;;62.85;21.55;;;;;;;3.19;59.09;102421.75;4934570;28;124538;-71
2023/01/26 01:31:10;;;;;;;63.97;22.17;;;;;;;3.21;59.17;102420.88;4936461;28;123271;-71
2023/01/26 01:33:38;;;;;;;65.95;21.83;;;;;;;3.21;58.91;102415.66;4933249;28;119552;-71
2023/01/26 01:36:09;;;;;;;64.28;21.70;;;;;;;3.21;59.07;102420.88;4946409;28;118699;-71
2023/01/26 01:38:36;;;;;;;64.35;22.25;;;;;;;3.21;59.03;102428.75;4942318;28;124484;-71
2023/01/26 01:41:03;;;;;;;63.03;21.40;;;;;;;3.21;58.89;102431.38;4934490;28;124626;-71
2023/01/26 01:43:30;;;;;;;63.80;21.60;;;;;;;3.22;59.18;102437.47;4950701;28;120394;-71
2023/01/26 01:46:00;;;;;;;64.97;21.42;;;;;;;3.23;59.06;102426.16;4946924;28;120091;-71
2023/01/26 01:48:36;;;;;;;68.05;23.23;;;;;;;3.25;59.22;102430.53;4954597;28;124412;-71
2023/01/26 01:51:16;;;;;;;65.18;22.27;;;;;;;3.23;59.20;102429.63;4948303;28;125276;-71
2023/01/26 01:53:47;;;;;;;67.72;22.27;;;;;;;3.23;59.06;102427.03;4952658;28;119209;-70
2023/01/26 01:56:20;;;;;;;66.95;22.30;;;;;;;3.25;59.35;102427.91;4938559;28;119731;-71
2023/01/26 01:58:51;;;;;;;70.43;23.00;;;;;;;3.28;59.07;102433.19;4949525;28;125130;-71
2023/01/26 02:01:19;;;;;;;58.75;21.08;;;;;;;3.29;59.20;102424.47;4933264;28;124741;-71
2023/01/26 02:03:49;;;;;;;59.08;20.85;;;;;;;3.31;59.20;102416.63;4940186;28;118371;-71
2023/01/26 02:06:27;;;;;;;64.95;22.52;;;;;;;3.31;59.12;102422.75;4934225;28;118991;-71
2023/01/26 02:08:55;;;;;;;66.28;22.88;;;;;;;3.31;59.13;102417.53;4933248;28;125013;-71
2023/01/26 02:11:32;;;;;;;68.07;23.48;;;;;;;3.33;59.16;102414.03;4933446;28;124505;-71
2023/01/26 02:14:05;;;;;;;58.25;20.20;;;;;;;3.34;59.03;102419.28;4953207;28;119463;-70
2023/01/26 02:16:33;;;;;;;61.72;22.58;;;;;;;3.36;59.24;102414.06;4950071;28;120080;-70
2023/01/26 02:19:01;;;;;;;64.25;21.55;;;;;;;3.38;59.24;102412.34;4934414;28;125169;-71
2023/01/26 02:21:30;;;;;;;67.15;22.48;;;;;;;3.40;59.38;102410.63;4931843;28;123985;-71
2023/01/26 02:24:23;;;;;;;64.75;22.00;;;;;;;3.41;59.22;102412.34;4944803;28;119335;-71
2023/01/26 02:26:52;;;;;;;60.25;21.42;;;;;;;3.42;59.16;102408.88;4949878;28;121365;-71
2023/01/26 02:29:20;;;;;;;64.78;22.63;;;;;;;3.41;59.07;102413.25;4933819;28;124365;-70
2023/01/26 02:31:47;;;;;;;61.70;21.15;;;;;;;3.42;59.10;102408.88;4934983;28;123922;-70
2023/01/26 02:34:14;;;;;;;60.78;22.05;;;;;;;3.43;59.17;102405.41;4930862;28;120280;-71
2023/01/26 02:36:42;;;;;;;63.78;21.42;;;;;;;3.44;59.29;102401.91;4942557;28;119183;-71
2023/01/26 02:39:33;;;;;;;57.45;21.40;;;;;;;3.42;59.42;102398.41;4934142;28;124072;-70
2023/01/26 02:44:46;;;;;;;;;;;;;;;3.44;59.30;102401.91;4951259;28;120537;-71
2023/01/26 02:47:17;;;;;;;61.47;20.48;;;;;;;3.42;59.10;102399.28;4954783;28;119028;-71
2023/01/26 02:49:46;;;;;;;60.47;21.83;;;;;;;3.40;59.04;102389.66;4953029;28;125057;-70
2023/01/26 02:52:16;;;;;;;63.97;22.02;;;;;;;3.39;59.16;102382.66;4933316;28;125915;-71
2023/01/26 02:57:33;;;;;;;56.67;20.80;;;;;;;3.40;59.37;102387.03;4953282;28;118461;-71
2023/01/26 03:00:04;;;;;;;57.55;20.80;;;;;;;3.41;59.28;102391.41;4945250;28;124298;-70
2023/01/26 03:02:31;;;;;;;56.13;20.05;;;;;;;3.44;59.64;102391.44;4949698;28;125701;-71
2023/01/26 03:04:58;;;;;;;63.92;21.85;;;;;;;3.46;59.57;102389.72;4934078;28;121939;-71
2023/01/26 03:07:26;;;;;;;55.92;20.98;;;;;;;3.48;59.33;102387.97;4953488;28;121155;-71
2023/01/26 03:09:53;;;;;;;58.88;20.30;;;;;;;3.48;59.23;102390.59;4931062;28;123668;-71
2023/01/26 03:12:20;;;;;;;57.92;21.48;;;;;;;3.47;59.51;102381.00;4953693;28;122684;-71
2023/01/26 03:15:33;;;;;;;63.53;21.38;;;;;;;3.46;59.27;102387.09;4941233;28;118632;-71
2023/01/26 03:17:35;;;;;;;57.70;20.67;;;;;;;3.45;59.40;102378.38;4934031;28;118780;-71
2023/01/26 03:28:42;;;;;;;56.22;20.42;;;;;;;3.42;59.39;102377.47;4905779;28;120188;-70
2023/01/26 03:31:10;;;;;;;60.33;21.63;;;;;;;3.42;59.49;102372.22;4887624;28;125141;-70
2023/01/26 03:33:37;;;;;;;58.67;19.85;;;;;;;3.43;59.63;102379.22;4922355;28;123638;-71
2023/01/26 03:36:05;;;;;;;61.83;21.38;;;;;;;3.45;59.63;102377.50;4954228;28;120270;-70
2023/01/26 03:38:32;;;;;;;57.80;20.98;;;;;;;3.48;59.45;102372.28;4951400;28;120256;-71
2023/01/26 03:57:37;;;;;;;52.42;18.35;;;;;;;3.57;59.37;102376.72;4933681;28;120431;-71
2023/01/26 04:00:05;;;;;;;48.90;17.90;;;;;;;3.54;59.56;102377.56;4950215;28;121259;-71
2023/01/26 04:08:29;;;;;;;53.25;18.73;;;;;;;3.56;59.66;102370.63;4944737;28;120392;-69
2023/01/26 04:10:58;;;;;;;53.38;19.67;;;;;;;3.58;59.50;102363.66;4946463;28;118460;-70
2023/01/26 04:22:06;;;;;;;48.92;18.23;;;;;;;3.66;59.58;102372.44;4939157;28;118563;-70
2023/01/26 04:24:35;;;;;;;49.78;18.27;;;;;;;3.67;59.38;102374.19;4917501;28;122371;-69
2023/01/26 04:27:03;;;;;;;54.38;17.92;;;;;;;3.70;59.54;102374.22;4919399;28;123676;-69
2023/01/26 04:29:35;;;;;;;46.35;17.38;;;;;;;3.72;59.69;102375.97;4911161;28;121061;-70
2023/01/26 04:32:02;;;;;;;48.40;18.23;;;;;;;3.75;59.82;102375.97;4943923;28;118351;-70
2023/01/26 04:34:31;;;;;;;48.65;18.48;;;;;;;3.77;59.70;102374.25;4946534;28;125035;-70
2023/01/26 04:36:59;;;;;;;50.22;17.75;;;;;;;3.77;59.59;102369.91;4940171;28;124865;-70
2023/01/26 04:39:35;;;;;;;50.75;18.35;;;;;;;3.79;59.79;102381.28;4924792;28;120985;-69
2023/01/26 04:42:04;;;;;;;50.28;18.52;;;;;;;3.81;59.74;102373.44;4940926;28;119669;-70
2023/01/26 04:44:31;;;;;;;47.53;17.77;;;;;;;3.83;59.81;102374.31;4949300;28;125694;-70
2023/01/26 04:46:59;;;;;;;48.97;17.52;;;;;;;3.85;59.72;102372.59;4943960;28;124460;-69
2023/01/26 04:49:27;;;;;;;49.75;17.27;;;;;;;3.88;59.91;102377.81;4948267;28;119856;-69
2023/01/26 04:51:54;;;;;;;47.50;18.50;;;;;;;3.90;59.68;102376.13;4944682;28;121012;-70
2023/01/26 04:54:22;;;;;;;46.88;17.40;;;;;;;3.93;59.77;102376.13;4945182;28;125033;-70
2023/01/26 04:56:50;;;;;;;49.42;17.48;;;;;;;3.95;59.80;102378.75;4943929;28;123043;-70
2023/01/26 04:59:18;;;;;;;45.13;16.92;;;;;;;3.97;59.81;102372.66;4931904;28;120146;-69
2023/01/26 05:01:45;;;;;;;43.70;16.45;;;;;;;3.99;59.69;102376.16;4945469;28;120219;-70
2023/01/26 05:04:12;;;;;;;41.85;16.27;;;;;;;4.02;59.86;102365.72;4947341;28;124943;-70
2023/01/26 05:06:43;;;;;;;44.42;17.02;;;;;;;4.04;59.74;102368.34;4943624;28;125891;-70
2023/01/26 05:09:10;;;;;;;40.40;14.63;;;;;;;4.06;59.82;102361.38;4948584;28;119082;-70
2023/01/26 05:11:39;;;;;;;40.25;15.93;;;;;;;4.08;59.61;102368.38;4935259;28;118366;-69
2023/01/26 05:14:25;;;;;;;39.05;15.50;;;;;;;4.09;59.88;102361.41;4937463;28;124682;-70
2023/01/26 05:17:03;;;;;;;42.97;15.38;;;;;;;4.08;59.82;102350.00;4946430;28;125433;-69
2023/01/26 05:20:06;;;;;;;36.85;14.75;;;;;;;4.08;59.75;102350.00;4933616;28;119735;-69
2023/01/26 05:22:54;;;;;;;39.00;14.55;;;;;;;4.10;59.67;102352.66;4953500;28;119502;-70
2023/01/26 05:25:39;;;;;;;41.47;15.18;;;;;;;4.12;59.94;102355.28;4944199;28;123841;-69
2023/01/26 05:28:09;;;;;;;39.38;14.32;;;;;;;4.13;59.65;102362.28;4944347;28;123716;-70
2023/01/26 05:30:36;;;;;;;34.63;13.75;;;;;;;4.13;59.87;102359.69;4948936;28;119986;-69
2023/01/26 05:33:07;;;;;;;38.75;13.85;;;;;;;4.14;59.83;102358.78;4933113;28;119121;-69
2023/01/26 05:35:34;;;;;;;33.55;13.73;;;;;;;4.16;59.85;102362.28;4948024;28;125321;-70
2023/01/26 05:38:03;;;;;;;35.35;14.07;;;;;;;4.16;59.96;102362.28;4935609;28;124504;-69
2023/01/26 05:40:32;;;;;;;34.28;13.85;;;;;;;4.16;59.97;102362.28;4933532;28;121479;-70
2023/01/26 05:42:59;;;;;;;37.83;13.52;;;;;;;4.16;59.92;102367.53;4949274;28;121125;-70
2023/01/26 05:45:45;;;;;;;33.53;13.20;;;;;;;4.17;59.85;102358.81;4936279;28;124803;-70
2023/01/26 05:48:14;;;;;;;34.25;13.05;;;;;;;4.19;59.73;102364.94;4941843;28;125182;-70
2023/01/26 05:50:41;;;;;;;35.80;13.68;;;;;;;4.20;59.76;102366.69;4930828;28;118990;-70
2023/01/26 05:53:16;;;;;;;30.35;11.80;;;;;;;4.21;59.75;102368.44;4928341;28;120066;-70
2023/01/26 05:55:44;;;;;;;32.58;11.82;;;;;;;4.22;59.82;102362.31;4927140;28;125106;-70
2023/01/26 05:58:12;;;;;;;29.15;10.98;;;;;;;4.23;59.93;102364.09;4929978;28;124705;-71
2023/01/26 06:00:39;;;;;;;30.15;11.18;;;;;;;4.25;60.11;102362.34;4934689;28;120073;-71
2023/01/26 06:03:13;;;;;;;29.88;12.10;;;;;;;4.26;59.90;102364.13;4936526;28;120353;-71
2023/01/26 06:05:41;;;;;;;29.77;11.10;;;;;;;4.28;59.70;102367.63;4958079;28;124531;-71
2023/01/26 06:08:16;;;;;;;31.63;11.65;;;;;;;4.27;59.93;102371.09;4942739;28;125082;-71
2023/01/26 06:10:57;;;;;;;29.38;11.48;;;;;;;4.27;59.75;102371.09;4950114;28;120239;-70
2023/01/26 06:13:38;;;;;;;27.35;10.48;;;;;;;4.28;59.88;102372.88;4934850;28;120860;-70
2023/01/26 06:16:16;;;;;;;27.98;11.10;;;;;;;4.30;59.78;102371.13;4948184;28;124675;-71
2023/01/26 06:18:47;;;;;;;25.42;10.35;;;;;;;4.30;59.71;102371.13;4932206;28;125842;-71
2023/01/26 06:21:15;;;;;;;28.90;10.80;;;;;;;4.30;59.89;102371.13;4934161;28;119342;-71
2023/01/26 06:23:43;;;;;;;27.80;10.95;;;;;;;4.30;59.75;102376.38;4949506;28;120373;-71
2023/01/26 06:26:11;;;;;;;27.52;11.18;;;;;;;4.29;59.81;102370.28;4932822;28;124709;-70
2023/01/26 06:28:39;;;;;;;27.92;10.93;;;;;;;4.31;59.84;102372.88;4931171;28;124740;-71
2023/01/26 06:31:07;;;;;;;27.40;11.32;;;;;;;4.31;60.03;102367.63;4930136;28;121139;-71
2023/01/26 06:33:37;;;;;;;26.52;10.88;;;;;;;4.31;59.91;102372.88;4929488;28;121237;-71
2023/01/26 06:36:11;;;;;;;28.60;11.35;;;;;;;4.31;59.67;102378.13;4948477;28;125099;-71
2023/01/26 06:38:44;;;;;;;28.90;11.32;;;;;;;4.30;59.79;102376.38;4953349;28;125012;-71
2023/01/26 06:41:11;;;;;;;29.25;11.60;;;;;;;4.30;59.57;102384.25;4935508;28;119619;-70
2023/01/26 06:43:39;;;;;;;28.30;10.93;;;;;;;4.31;59.90;102378.13;4920610;28;118382;-71
2023/01/26 06:46:06;;;;;;;25.90;10.85;;;;;;;4.31;59.98;102378.13;4936095;28;125620;-71
2023/01/26 06:48:34;;;;;;;30.65;11.38;;;;;;;4.32;60.00;102385.13;4951386;28;125424;-71
2023/01/26 06:51:24;;;;;;;29.52;12.05;;;;;;;4.33;59.93;102386.88;4919214;28;120509;-71
2023/01/26 06:53:56;;;;;;;27.50;11.20;;;;;;;4.36;59.81;102380.78;4954678;28;120439;-71
2023/01/26 06:56:31;;;;;;;29.38;11.30;;;;;;;4.36;60.02;102381.66;4941235;28;123635;-71
2023/01/26 06:59:19;;;;;;;29.00;11.85;;;;;;;4.35;60.01;102385.16;4932527;28;123808;-71
2023/01/26 07:02:15;;;;;;;29.25;10.90;;;;;;;4.37;59.85;102388.66;4938216;28;119495;-71
2023/01/26 07:04:42;;;;;;;28.73;11.40;;;;;;;4.37;59.76;102388.66;4950073;28;119194;-71
2023/01/26 07:07:09;;;;;;;27.95;10.85;;;;;;;4.37;59.78;102388.66;4955702;28;125066;-71
2023/01/26 07:09:36;;;;;;;26.67;11.13;;;;;;;4.37;60.16;102387.75;4936597;28;124551;-71
2023/01/26 07:12:04;;;;;;;27.83;11.40;;;;;;;4.36;59.81;102384.28;4934468;28;120023;-71
2023/01/26 07:14:32;;;;;;;23.83;10.00;;;;;;;4.35;59.71;102379.91;4955760;28;119856;-71
2023/01/26 07:16:59;;;;;;;28.38;11.23;;;;;;;4.36;59.95;102386.91;4943754;28;124299;-71
2023/01/26 07:19:29;;;;;;;28.70;11.15;;;;;;;4.39;60.26;102386.94;4943794;28;123887;-70
2023/01/26 07:21:56;;;;;;;24.10;10.75;;;;;;;4.40;59.96;102393.91;4958387;28;120145;-71
2023/01/26 07:24:23;;;;;;;25.70;10.68;;;;;;;4.41;60.19;102395.69;4942751;28;119855;-71
2023/01/26 07:26:51;;;;;;;26.80;10.63;;;;;;;4.41;59.89;102389.56;4941349;28;123973;-71
2023/01/26 07:29:18;;;;;;;25.13;10.57;;;;;;;4.41;60.14;102400.06;4936346;28;126096;-71
2023/01/26 07:31:45;;;;;;;20.65;7.22;;;;;;;4.41;60.11;102406.16;4939161;28;119320;-71
2023/01/26 07:34:12;;;;;;;21.08;7.43;;;;;;;4.41;60.13;102400.91;4937279;28;119337;-72
2023/01/26 07:36:39;;;;;;;21.25;7.03;;;;;;;4.41;59.94;102406.16;4952104;28;124035;-72
2023/01/26 07:39:06;;;;;;;17.52;6.50;;;;;;;4.41;59.79;102406.16;4942897;28;124772;-72
2023/01/26 07:41:34;;;;;;;20.48;6.57;;;;;;;4.41;59.55;102403.53;4950855;28;118293;-73
2023/01/26 07:44:12;;;;;;;22.30;7.57;;;;;;;4.41;59.87;102406.16;4935850;28;120606;-72
2023/01/26 07:46:40;;;;;;;20.77;7.80;;;;;;;4.42;59.83;102410.53;4946774;28;124498;-73
2023/01/26 07:49:07;;;;;;;21.92;7.78;;;;;;;4.43;60.12;102414.94;4935712;28;125038;-73
2023/01/26 07:51:34;;;;;;;22.90;7.60;;;;;;;4.43;59.74;102409.69;4934800;28;119443;-72
2023/01/26 07:54:01;;;;;;;19.75;7.47;;;;;;;4.44;60.00;102411.41;4917686;28;120224;-72
2023/01/26 07:56:28;;;;;;;26.75;8.25;;;;;;;4.46;60.26;102404.47;4934554;28;125150;-73
2023/01/26 07:58:56;;;;;;;21.13;7.57;;;;;;;4.49;59.97;102412.31;4954944;28;123964;-72
2023/01/26 08:01:23;;;;;;;24.48;7.53;;;;;;;4.51;60.11;102417.59;4947666;28;119290;-73
2023/01/26 08:03:52;;;;;;;22.52;7.30;;;;;;;4.53;59.85;102417.59;4938768;28;119078;-73
2023/01/26 08:06:20;;;;;;;22.10;7.55;;;;;;;4.55;60.10;102418.47;4935318;28;124487;-73
2023/01/26 08:08:52;;;;;;;18.80;6.97;;;;;;;4.55;60.14;102413.25;4939020;28;123016;-73
2023/01/26 08:11:22;;;;;;;21.65;7.50;;;;;;;4.55;59.87;102418.47;4938629;28;120083;-73
2023/01/26 08:13:49;;;;;;;22.10;7.47;;;;;;;4.57;59.81;102416.75;4938585;28;120389;-73
2023/01/26 08:16:16;;;;;;;22.50;7.80;;;;;;;4.57;60.10;102417.63;4951354;28;123695;-73
2023/01/26 08:18:45;;;;;;;23.77;7.63;;;;;;;4.60;59.83;102416.78;4939586;28;123871;-73
2023/01/26 08:21:14;;;;;;;24.55;8.35;;;;;;;4.61;59.93;102421.13;4928467;28;119553;-73
2023/01/26 08:23:41;;;;;;;23.00;7.68;;;;;;;4.60;59.85;102422.88;4950204;28;119956;-73
2023/01/26 08:26:12;;;;;;;25.42;8.07;;;;;;;4.61;59.73;102418.50;4933953;28;125224;-73
2023/01/26 08:28:40;;;;;;;21.95;7.45;;;;;;;4.61;59.81;102429.00;4953678;28;124027;-73
2023/01/26 08:31:13;;;;;;;24.65;8.10;;;;;;;4.61;59.93;102423.75;4936181;28;120316;-72
2023/01/26 08:33:41;;;;;;;21.45;8.02;;;;;;;4.62;60.02;102425.53;4961437;28;120211;-73
2023/01/26 08:36:13;;;;;;;22.27;8.25;;;;;;;4.60;59.90;102427.28;4943905;28;125648;-72
2023/01/26 08:38:41;;;;;;;22.45;7.38;;;;;;;4.61;59.82;102429.00;4949200;28;123708;-73
2023/01/26 08:41:09;;;;;;;18.85;7.22;;;;;;;4.62;60.17;102425.53;4931786;28;120122;-72
2023/01/26 08:43:36;;;;;;;22.85;8.25;;;;;;;4.63;60.14;102435.13;4945594;28;119631;-73
2023/01/26 08:46:04;;;;;;;21.95;7.47;;;;;;;4.64;60.11;102434.28;4944757;28;124336;-73
2023/01/26 08:48:31;;;;;;;21.50;8.23;;;;;;;4.63;59.82;102432.50;4943601;28;122982;-73
2023/01/26 08:51:01;;;;;;;27.58;7.95;;;;;;;4.63;59.96;102429.88;4929793;28;119950;-74
2023/01/26 08:53:32;;;;;;;24.92;7.22;;;;;;;4.66;59.96;102437.78;4941468;28;118781;-73
2023/01/26 08:56:04;;;;;;;22.38;7.40;;;;;;;4.66;59.77;102432.53;4927871;28;123126;-73
2023/01/26 08:58:32;;;;;;;27.48;7.72;;;;;;;4.68;60.15;102442.16;4935295;28;124523;-73
2023/01/26 09:01:06;;;;;;;25.92;7.32;;;;;;;4.70;59.97;102439.56;4935431;28;120034;-73
2023/01/26 09:03:33;;;;;;;18.23;6.95;;;;;;;4.72;60.26;102437.81;4939010;28;119860;-73
2023/01/26 09:06:03;;;;;;;21.02;7.50;;;;;;;4.74;60.15;102441.31;4936843;28;123946;-73
2023/01/26 09:08:31;;;;;;;19.45;7.53;;;;;;;4.75;60.13;102443.09;4948811;28;124144;-73
2023/01/26 09:10:58;;;;;;;19.95;7.32;;;;;;;4.76;60.18;102444.81;4944293;28;119321;-73
2023/01/26 09:13:25;;;;;;;19.85;7.00;;;;;;;4.76;59.88;102444.81;4943093;28;119233;-73
2023/01/26 09:15:52;;;;;;;21.98;7.40;;;;;;;4.78;60.22;102439.59;4945521;28;124237;-72
2023/01/26 09:18:19;;;;;;;20.83;7.22;;;;;;;4.81;60.05;102448.34;4950005;28;123905;-73
2023/01/26 09:20:47;;;;;;;25.58;7.38;;;;;;;4.82;60.29;102443.97;4949927;28;119388;-72
2023/01/26 09:23:16;;;;;;;23.63;7.57;;;;;;;4.82;60.25;102437.00;4947878;28;118826;-73
2023/01/26 09:25:43;;;;;;;23.45;8.07;;;;;;;4.84;60.07;102443.13;4946371;28;124779;-73
2023/01/26 09:28:11;;;;;;;22.90;8.23;;;;;;;4.86;60.17;102446.63;4955522;28;124140;-73
2023/01/26 09:30:38;;;;;;;27.17;9.07;;;;;;;4.90;60.05;102442.28;4943504;28;118989;-73
2023/01/26 09:33:06;;;;;;;26.58;8.38;;;;;;;4.92;60.22;102445.78;4950000;28;119046;-73
2023/01/26 09:35:33;;;;;;;28.08;7.75;;;;;;;4.96;60.18;102451.94;4949217;28;124401;-73
2023/01/26 09:38:00;;;;;;;23.17;8.00;;;;;;;4.99;60.38;102451.94;4948182;28;123650;-73
2023/01/26 09:40:35;;;;;;;22.92;8.25;;;;;;;5.00;60.37;102448.44;4951836;28;119268;-74
2023/01/26 09:43:35;;;;;;;24.98;9.20;;;;;;;5.00;60.27;102454.56;4946834;28;119227;-73
2023/01/26 09:46:23;;;;;;;29.85;8.00;;;;;;;5.04;60.39;102460.72;4934203;28;123915;-73
2023/01/26 09:49:01;;;;;;;33.20;8.90;;;;;;;5.05;60.10;102452.84;4957508;28;124780;-73
2023/01/26 09:51:32;;;;;;;29.20;8.57;;;;;;;5.08;60.09;102454.59;4956427;28;120328;-73
2023/01/26 09:54:11;;;;;;;35.45;8.82;;;;;;;5.09;60.07;102453.72;4944573;28;120525;-73
2023/01/26 09:56:39;;;;;;;40.15;9.23;;;;;;;5.10;60.36;102458.09;4953954;28;124273;-73
2023/01/26 09:59:27;;;;;;;30.17;8.43;;;;;;;5.10;60.41;102444.97;4935559;28;123840;-73
2023/01/26 10:02:09;;;;;;;31.95;9.38;;;;;;;5.11;60.16;102452.00;4934290;28;119217;-73
2023/01/26 10:04:42;;;;;;;35.28;9.27;;;;;;;5.14;60.51;102452.00;4942345;28;118879;-73
2023/01/26 10:07:12;;;;;;;36.45;9.93;;;;;;;5.17;60.34;102445.88;4936785;28;124513;-73
2023/01/26 10:09:49;;;;;;;33.92;9.68;;;;;;;5.21;60.36;102448.50;4938131;28;124232;-73
2023/01/26 10:12:33;;;;;;;33.53;9.32;;;;;;;5.21;60.42;102448.50;4951507;28;119557;-73
2023/01/26 10:15:06;;;;;;;32.95;9.23;;;;;;;5.23;60.18;102446.75;4942665;28;118335;-73
2023/01/26 10:17:37;;;;;;;33.40;10.10;;;;;;;5.26;60.25;102446.78;4958681;28;122674;-73
2023/01/26 10:20:14;;;;;;;37.22;9.52;;;;;;;5.26;60.31;102436.28;4949624;28;123654;-73
2023/01/26 10:22:44;;;;;;;33.95;9.50;;;;;;;5.28;60.34;102432.78;4941915;28;118681;-73
2023/01/26 10:25:28;;;;;;;28.38;9.07;;;;;;;5.29;60.15;102434.53;4954297;28;119699;-73
2023/01/26 10:27:56;;;;;;;31.77;9.73;;;;;;;5.30;60.53;102431.91;4930268;28;125728;-73
2023/01/26 10:30:23;;;;;;;41.45;10.57;;;;;;;5.33;60.26;102433.66;4948360;28;123492;-73
2023/01/26 10:32:52;;;;;;;37.40;10.68;;;;;;;5.35;60.47;102434.53;4943771;28;119418;-73
2023/01/26 10:35:22;;;;;;;39.30;10.63;;;;;;;5.37;60.22;102443.28;4938117;28;118962;-73
2023/01/26 10:37:51;;;;;;;37.92;11.25;;;;;;;5.38;60.56;102439.81;4936265;28;123944;-73
2023/01/26 10:40:20;;;;;;;38.03;10.82;;;;;;;5.41;60.51;102445.06;4955723;28;123956;-73
2023/01/26 10:42:56;;;;;;;46.20;10.65;;;;;;;5.41;60.32;102439.81;4938678;28;120178;-73
2023/01/26 10:45:30;;;;;;;38.25;10.98;;;;;;;5.42;60.37;102449.44;4930801;28;119692;-73
2023/01/26 10:48:15;;;;;;;37.22;11.05;;;;;;;5.41;60.29;102447.69;4944842;28;124780;-73
2023/01/26 10:50:42;;;;;;;41.47;11.40;;;;;;;5.41;60.53;102440.69;4941456;28;124173;-73
2023/01/26 10:53:27;;;;;;;44.03;11.77;;;;;;;5.41;60.59;102435.44;4948206;28;119757;-73
2023/01/26 10:56:05;;;;;;;55.20;11.30;;;;;;;5.45;60.61;102436.31;4942797;28;118439;-73
2023/01/26 10:59:01;;;;;;;49.38;10.98;;;;;;;5.48;60.54;102436.31;4926880;28;123838;-73
2023/01/26 11:01:53;;;;;;;40.10;11.30;;;;;;;5.49;60.63;102448.59;4933403;28;123995;-73
2023/01/26 11:04:21;;;;;;;50.58;12.65;;;;;;;5.51;60.66;102441.59;4962006;28;118804;-73
2023/01/26 11:06:48;;;;;;;46.17;11.95;;;;;;;5.53;60.78;102439.81;4946204;28;119496;-73
2023/01/26 11:09:26;;;;;;;38.50;10.68;;;;;;;5.55;60.47;102443.34;4932213;28;123145;-73
2023/01/26 11:12:06;;;;;;;39.72;11.00;;;;;;;5.57;61.03;102436.31;4944882;28;124487;-73
2023/01/26 11:14:34;;;;;;;49.15;11.98;;;;;;;5.60;60.88;102431.09;4947120;28;119218;-73
2023/01/26 11:17:19;;;;;;;44.75;11.48;;;;;;;5.63;60.98;102431.09;4947344;28;118810;-73
2023/01/26 11:20:21;;;;;;;48.42;10.95;;;;;;;5.69;61.15;102431.97;4944589;28;123864;-73
2023/01/26 11:23:10;;;;;;;49.97;11.35;;;;;;;5.73;61.15;102426.72;4916915;28;122655;-73
2023/01/26 11:25:53;;;;;;;52.22;10.80;;;;;;;5.80;61.09;102432.84;4946206;28;120086;-73
2023/01/26 11:28:47;;;;;;;76.53;11.63;;;;;;;5.87;61.33;102429.34;4947501;28;119075;-73
2023/01/26 11:31:21;;;;;;;54.15;12.43;;;;;;;5.91;60.99;102425.84;4944639;28;123531;-73
2023/01/26 11:34:14;;;;;;;33.47;9.45;;;;;;;5.96;61.19;102428.50;4957950;28;123808;-73
2023/01/26 11:36:55;;;;;;;36.40;10.25;;;;;;;6.03;61.33;102436.41;4928380;28;120531;-73
2023/01/26 11:39:38;;;;;;;43.47;9.10;;;;;;;6.10;61.07;102428.50;4945028;28;119361;-73
2023/01/26 11:42:16;;;;;;;36.65;9.95;;;;;;;6.17;61.31;102432.88;4935054;28;124721;-73
2023/01/26 11:45:02;;;;;;;40.45;9.48;;;;;;;6.24;61.60;102434.63;4949742;28;123795;-73
2023/01/26 11:47:42;;;;;;;36.20;9.57;;;;;;;6.31;61.46;102420.59;4954791;28;119551;-73
2023/01/26 11:50:16;;;;;;;39.45;8.32;;;;;;;6.38;61.42;102422.31;4928530;28;117863;-73
2023/01/26 11:52:55;;;;;;;33.28;8.82;;;;;;;6.48;61.52;102423.19;4945753;28;123692;-74
2023/01/26 11:55:35;;;;;;;36.13;9.05;;;;;;;6.57;61.95;102422.25;4952916;28;123609;-73
2023/01/26 11:58:42;;;;;;;35.22;7.70;;;;;;;6.64;61.69;102421.38;4934532;28;119794;-73
2023/01/26 12:01:27;;;;;;;23.90;7.80;;;;;;;6.72;61.91;102405.53;4886590;28;119404;-73
2023/01/26 12:03:55;;;;;;;32.83;7.60;;;;;;;6.81;61.60;102416.03;4935279;28;123169;-70
2023/01/26 12:06:37;;;;;;;29.65;7.45;;;;;;;6.89;61.81;102402.84;4930341;28;123870;-73
2023/01/26 12:09:17;;;;;;;25.25;7.45;;;;;;;6.96;61.80;102401.94;4938491;28;119500;-73
2023/01/26 12:12:03;;;;;;;27.65;7.05;;;;;;;7.05;61.95;102409.78;4939576;28;119266;-73
2023/01/26 12:14:43;;;;;;;25.73;6.90;;;;;;;7.14;62.17;102409.75;4955017;28;123748;-73
2023/01/26 12:17:32;;;;;;;28.92;7.72;;;;;;;7.21;61.86;102406.19;4940764;28;123244;-73
2023/01/26 12:20:14;;;;;;;21.13;6.32;;;;;;;7.30;61.93;102404.38;4938353;28;119596;-72
2023/01/26 12:22:48;;;;;;;24.48;7.60;;;;;;;7.37;62.09;102395.56;4939705;28;119337;-72